sensor_id;sensor_type;location;lat;lon;timestamp;temperature;humidity
3488;DHT22;38546;48.170;11.724;2023-08-17T00:01:40;19.70;99.90
3488;DHT22;38546;48.170;11.724;2023-08-17T00:04:30;19.60;99.90
3488;DHT22;38546;48.170;11.724;2023-08-17T00:07:19;19.60;99.90
3488;DHT22;38546;48.170;11.724;2023-08-17T00:10:09;19.60;99.90
3488;DHT22;38546;48.170;11.724;2023-08-17T00:12:58;19.50;99.90
3488;DHT22;38546;48.170;11.724;2023-08-17T00:15:48;19.50;99.90
3488;DHT22;38546;48.170;11.724;2023-08-17T00:18:37;19.50;99.90
3488;DHT22;38546;48.170;11.724;2023-08-17T00:21:26;19.40;99.90
3488;DHT22;38546;48.170;11.724;2023-08-17T00:24:15;19.30;99.90
3488;DHT22;38546;48.170;11.724;2023-08-17T00:27:05;19.30;99.90
3488;DHT22;38546;48.170;11.724;2023-08-17T00:29:54;19.30;99.90
3488;DHT22;38546;48.170;11.724;2023-08-17T00:32:43;19.30;99.90
3488;DHT22;38546;48.170;11.724;2023-08-17T00:35:33;19.30;99.90
3488;DHT22;38546;48.170;11.724;2023-08-17T00:38:22;19.30;99.90
3488;DHT22;38546;48.170;11.724;2023-08-17T00:41:11;19.30;99.90
3488;DHT22;38546;48.170;11.724;2023-08-17T00:44:01;19.30;99.90
3488;DHT22;38546;48.170;11.724;2023-08-17T00:46:50;19.30;99.90
3488;DHT22;38546;48.170;11.724;2023-08-17T00:49:40;19.30;99.90
3488;DHT22;38546;48.170;11.724;2023-08-17T00:52:32;19.30;99.90
3488;DHT22;38546;48.170;11.724;2023-08-17T00:55:22;19.30;99.90
3488;DHT22;38546;48.170;11.724;2023-08-17T00:58:11;19.30;99.90
3488;DHT22;38546;48.170;11.724;2023-08-17T01:01:01;19.20;99.90
3488;DHT22;38546;48.170;11.724;2023-08-17T01:03:52;19.20;99.90
3488;DHT22;38546;48.170;11.724;2023-08-17T01:06:41;19.20;99.90
3488;DHT22;38546;48.170;11.724;2023-08-17T01:09:30;19.20;99.90
3488;DHT22;38546;48.170;11.724;2023-08-17T01:12:32;19.20;99.90
3488;DHT22;38546;48.170;11.724;2023-08-17T01:16:16;19.20;99.90
3488;DHT22;38546;48.170;11.724;2023-08-17T01:19:13;19.20;99.90
3488;DHT22;38546;48.170;11.724;2023-08-17T01:22:17;19.20;99.90
3488;DHT22;38546;48.170;11.724;2023-08-17T01:25:10;19.20;99.90
3488;DHT22;38546;48.170;11.724;2023-08-17T01:27:59;19.10;99.90
3488;DHT22;38546;48.170;11.724;2023-08-17T01:31:05;19.10;99.90
3488;DHT22;38546;48.170;11.724;2023-08-17T01:34:06;19.10;99.90
3488;DHT22;38546;48.170;11.724;2023-08-17T01:37:00;19.00;99.90
3488;DHT22;38546;48.170;11.724;2023-08-17T01:39:52;19.00;99.90
3488;DHT22;38546;48.170;11.724;2023-08-17T01:42:45;19.00;99.90
3488;DHT22;38546;48.170;11.724;2023-08-17T01:45:35;19.00;99.90
3488;DHT22;38546;48.170;11.724;2023-08-17T01:48:24;18.90;99.90
3488;DHT22;38546;48.170;11.724;2023-08-17T01:51:18;18.90;99.90
3488;DHT22;38546;48.170;11.724;2023-08-17T01:54:11;18.90;99.90
3488;DHT22;38546;48.170;11.724;2023-08-17T01:57:00;18.90;99.90
3488;DHT22;38546;48.170;11.724;2023-08-17T01:59:49;18.90;99.90
3488;DHT22;38546;48.170;11.724;2023-08-17T02:02:38;18.90;99.90
3488;DHT22;38546;48.170;11.724;2023-08-17T02:05:28;18.80;99.90
3488;DHT22;38546;48.170;11.724;2023-08-17T02:08:18;18.80;99.90
3488;DHT22;38546;48.170;11.724;2023-08-17T02:11:07;18.80;99.90
3488;DHT22;38546;48.170;11.724;2023-08-17T02:13:58;18.80;99.90
3488;DHT22;38546;48.170;11.724;2023-08-17T02:16:48;18.80;99.90
3488;DHT22;38546;48.170;11.724;2023-08-17T02:19:38;18.70;99.90
3488;DHT22;38546;48.170;11.724;2023-08-17T02:22:27;18.70;99.90
3488;DHT22;38546;48.170;11.724;2023-08-17T02:25:16;18.70;99.90
3488;DHT22;38546;48.170;11.724;2023-08-17T02:28:06;18.60;99.90
3488;DHT22;38546;48.170;11.724;2023-08-17T02:30:57;18.70;99.90
3488;DHT22;38546;48.170;11.724;2023-08-17T02:33:47;18.70;99.90
3488;DHT22;38546;48.170;11.724;2023-08-17T02:36:36;18.70;99.90
3488;DHT22;38546;48.170;11.724;2023-08-17T02:39:25;18.70;99.90
3488;DHT22;38546;48.170;11.724;2023-08-17T02:42:15;18.70;99.90
3488;DHT22;38546;48.170;11.724;2023-08-17T02:45:06;18.70;99.90
3488;DHT22;38546;48.170;11.724;2023-08-17T02:47:55;18.70;99.90
3488;DHT22;38546;48.170;11.724;2023-08-17T02:50:45;18.70;99.90
3488;DHT22;38546;48.170;11.724;2023-08-17T02:53:34;18.70;99.90
3488;DHT22;38546;48.170;11.724;2023-08-17T02:56:23;18.70;99.90
3488;DHT22;38546;48.170;11.724;2023-08-17T02:59:12;18.70;99.90
3488;DHT22;38546;48.170;11.724;2023-08-17T03:02:01;18.60;99.90
3488;DHT22;38546;48.170;11.724;2023-08-17T03:04:51;18.60;99.90
3488;DHT22;38546;48.170;11.724;2023-08-17T03:07:40;18.50;99.90
3488;DHT22;38546;48.170;11.724;2023-08-17T03:10:29;18.60;99.90
3488;DHT22;38546;48.170;11.724;2023-08-17T03:13:19;18.60;99.90
3488;DHT22;38546;48.170;11.724;2023-08-17T03:16:08;18.50;99.90
3488;DHT22;38546;48.170;11.724;2023-08-17T03:18:57;18.50;99.90
3488;DHT22;38546;48.170;11.724;2023-08-17T03:21:47;18.50;99.90
3488;DHT22;38546;48.170;11.724;2023-08-17T03:24:36;18.50;99.90
3488;DHT22;38546;48.170;11.724;2023-08-17T03:27:25;18.40;99.90
3488;DHT22;38546;48.170;11.724;2023-08-17T03:30:15;18.40;99.90
3488;DHT22;38546;48.170;11.724;2023-08-17T03:33:04;18.40;99.90
3488;DHT22;38546;48.170;11.724;2023-08-17T03:35:53;18.40;99.90
3488;DHT22;38546;48.170;11.724;2023-08-17T03:38:43;18.40;99.90
3488;DHT22;38546;48.170;11.724;2023-08-17T03:41:33;18.40;99.90
3488;DHT22;38546;48.170;11.724;2023-08-17T03:44:22;18.30;99.90
3488;DHT22;38546;48.170;11.724;2023-08-17T03:47:12;18.30;99.90
3488;DHT22;38546;48.170;11.724;2023-08-17T03:50:01;18.20;99.90
3488;DHT22;38546;48.170;11.724;2023-08-17T03:52:50;18.20;99.90
3488;DHT22;38546;48.170;11.724;2023-08-17T03:55:49;18.20;99.90
3488;DHT22;38546;48.170;11.724;2023-08-17T03:58:39;18.10;99.90
3488;DHT22;38546;48.170;11.724;2023-08-17T04:01:29;18.10;99.90
3488;DHT22;38546;48.170;11.724;2023-08-17T04:04:18;18.10;99.90
3488;DHT22;38546;48.170;11.724;2023-08-17T04:07:07;18.10;99.90
3488;DHT22;38546;48.170;11.724;2023-08-17T04:09:57;18.10;99.90
3488;DHT22;38546;48.170;11.724;2023-08-17T04:12:46;18.10;99.90
3488;DHT22;38546;48.170;11.724;2023-08-17T04:15:36;18.00;99.90
3488;DHT22;38546;48.170;11.724;2023-08-17T04:18:25;18.00;99.90
3488;DHT22;38546;48.170;11.724;2023-08-17T04:21:14;18.00;99.90
3488;DHT22;38546;48.170;11.724;2023-08-17T04:24:04;17.90;99.90
3488;DHT22;38546;48.170;11.724;2023-08-17T04:26:54;17.90;99.90
3488;DHT22;38546;48.170;11.724;2023-08-17T04:29:43;17.90;99.90
3488;DHT22;38546;48.170;11.724;2023-08-17T04:32:33;17.90;99.90
3488;DHT22;38546;48.170;11.724;2023-08-17T04:35:22;17.90;99.90
3488;DHT22;38546;48.170;11.724;2023-08-17T04:38:12;18.00;99.90
3488;DHT22;38546;48.170;11.724;2023-08-17T04:41:01;18.00;99.90
3488;DHT22;38546;48.170;11.724;2023-08-17T04:43:50;18.00;99.90
3488;DHT22;38546;48.170;11.724;2023-08-17T04:46:39;18.10;99.90
3488;DHT22;38546;48.170;11.724;2023-08-17T04:49:30;18.10;99.90
3488;DHT22;38546;48.170;11.724;2023-08-17T04:52:20;18.20;99.90
3488;DHT22;38546;48.170;11.724;2023-08-17T04:55:09;18.20;99.90
3488;DHT22;38546;48.170;11.724;2023-08-17T04:57:59;18.30;99.90
3488;DHT22;38546;48.170;11.724;2023-08-17T05:00:48;18.30;99.90
3488;DHT22;38546;48.170;11.724;2023-08-17T05:03:37;18.30;99.90
3488;DHT22;38546;48.170;11.724;2023-08-17T05:06:28;18.30;99.90
3488;DHT22;38546;48.170;11.724;2023-08-17T05:09:18;18.30;99.90
3488;DHT22;38546;48.170;11.724;2023-08-17T05:12:08;18.40;99.90
3488;DHT22;38546;48.170;11.724;2023-08-17T05:14:57;18.40;99.90
3488;DHT22;38546;48.170;11.724;2023-08-17T05:17:46;18.40;99.90
3488;DHT22;38546;48.170;11.724;2023-08-17T05:20:35;18.50;99.90
3488;DHT22;38546;48.170;11.724;2023-08-17T05:23:25;18.50;99.90
3488;DHT22;38546;48.170;11.724;2023-08-17T05:26:14;18.60;99.90
3488;DHT22;38546;48.170;11.724;2023-08-17T05:29:03;18.60;99.90
3488;DHT22;38546;48.170;11.724;2023-08-17T05:31:53;18.70;99.90
3488;DHT22;38546;48.170;11.724;2023-08-17T05:34:42;18.70;99.90
3488;DHT22;38546;48.170;11.724;2023-08-17T05:37:32;18.80;99.90
3488;DHT22;38546;48.170;11.724;2023-08-17T05:40:21;18.90;99.90
3488;DHT22;38546;48.170;11.724;2023-08-17T05:43:10;18.90;99.90
3488;DHT22;38546;48.170;11.724;2023-08-17T05:46:00;19.10;99.90
3488;DHT22;38546;48.170;11.724;2023-08-17T05:48:49;19.20;99.90
3488;DHT22;38546;48.170;11.724;2023-08-17T05:51:38;19.20;99.90
3488;DHT22;38546;48.170;11.724;2023-08-17T05:54:28;19.30;99.90
3488;DHT22;38546;48.170;11.724;2023-08-17T05:57:17;19.30;99.90
3488;DHT22;38546;48.170;11.724;2023-08-17T06:00:07;19.50;99.90
3488;DHT22;38546;48.170;11.724;2023-08-17T06:02:59;19.60;99.90
3488;DHT22;38546;48.170;11.724;2023-08-17T06:05:53;19.60;99.90
3488;DHT22;38546;48.170;11.724;2023-08-17T06:08:42;19.70;99.90
3488;DHT22;38546;48.170;11.724;2023-08-17T06:11:31;19.90;99.90
3488;DHT22;38546;48.170;11.724;2023-08-17T06:14:20;20.10;99.90
3488;DHT22;38546;48.170;11.724;2023-08-17T06:17:09;20.20;99.90
3488;DHT22;38546;48.170;11.724;2023-08-17T06:19:58;20.30;99.90
3488;DHT22;38546;48.170;11.724;2023-08-17T06:22:48;20.50;99.90
3488;DHT22;38546;48.170;11.724;2023-08-17T06:25:38;20.60;99.90
3488;DHT22;38546;48.170;11.724;2023-08-17T06:28:27;20.80;99.90
3488;DHT22;38546;48.170;11.724;2023-08-17T06:31:17;21.00;99.90
3488;DHT22;38546;48.170;11.724;2023-08-17T06:34:06;21.20;99.90
3488;DHT22;38546;48.170;11.724;2023-08-17T06:36:59;21.40;99.90
3488;DHT22;38546;48.170;11.724;2023-08-17T06:39:51;21.60;99.90
3488;DHT22;38546;48.170;11.724;2023-08-17T06:42:40;21.80;99.90
3488;DHT22;38546;48.170;11.724;2023-08-17T06:45:29;22.00;99.90
3488;DHT22;38546;48.170;11.724;2023-08-17T06:48:19;22.20;99.90
3488;DHT22;38546;48.170;11.724;2023-08-17T06:51:08;22.50;99.90
3488;DHT22;38546;48.170;11.724;2023-08-17T06:53:58;22.70;99.90
3488;DHT22;38546;48.170;11.724;2023-08-17T06:56:46;22.80;99.90
3488;DHT22;38546;48.170;11.724;2023-08-17T06:59:36;23.10;99.90
3488;DHT22;38546;48.170;11.724;2023-08-17T07:02:25;23.30;99.90
3488;DHT22;38546;48.170;11.724;2023-08-17T07:05:15;23.40;99.90
3488;DHT22;38546;48.170;11.724;2023-08-17T07:08:05;23.50;99.90
3488;DHT22;38546;48.170;11.724;2023-08-17T07:10:54;23.70;99.90
3488;DHT22;38546;48.170;11.724;2023-08-17T07:13:43;23.80;99.90
3488;DHT22;38546;48.170;11.724;2023-08-17T07:16:32;24.00;99.90
3488;DHT22;38546;48.170;11.724;2023-08-17T07:19:22;24.20;99.90
3488;DHT22;38546;48.170;11.724;2023-08-17T07:22:11;24.20;99.90
3488;DHT22;38546;48.170;11.724;2023-08-17T07:25:00;24.40;99.90
3488;DHT22;38546;48.170;11.724;2023-08-17T07:27:49;24.60;99.90
3488;DHT22;38546;48.170;11.724;2023-08-17T07:30:38;24.70;99.90
3488;DHT22;38546;48.170;11.724;2023-08-17T07:33:28;24.80;99.90
3488;DHT22;38546;48.170;11.724;2023-08-17T07:36:16;24.90;99.90
3488;DHT22;38546;48.170;11.724;2023-08-17T07:39:05;25.10;99.90
3488;DHT22;38546;48.170;11.724;2023-08-17T07:41:54;25.20;99.90
3488;DHT22;38546;48.170;11.724;2023-08-17T07:44:43;25.30;99.90
3488;DHT22;38546;48.170;11.724;2023-08-17T07:47:34;25.40;99.90
3488;DHT22;38546;48.170;11.724;2023-08-17T07:50:27;25.40;99.90
3488;DHT22;38546;48.170;11.724;2023-08-17T07:53:17;25.50;99.90
3488;DHT22;38546;48.170;11.724;2023-08-17T07:56:07;25.50;99.90
3488;DHT22;38546;48.170;11.724;2023-08-17T07:58:56;25.60;99.90
3488;DHT22;38546;48.170;11.724;2023-08-17T08:01:45;25.70;99.90
3488;DHT22;38546;48.170;11.724;2023-08-17T08:04:35;25.80;99.90
3488;DHT22;38546;48.170;11.724;2023-08-17T08:07:24;25.90;99.90
3488;DHT22;38546;48.170;11.724;2023-08-17T08:10:13;25.80;99.90
3488;DHT22;38546;48.170;11.724;2023-08-17T08:13:03;25.90;99.90
3488;DHT22;38546;48.170;11.724;2023-08-17T08:15:53;26.00;99.90
3488;DHT22;38546;48.170;11.724;2023-08-17T08:18:42;26.00;99.90
3488;DHT22;38546;48.170;11.724;2023-08-17T08:21:31;26.10;99.90
3488;DHT22;38546;48.170;11.724;2023-08-17T08:24:20;26.20;99.90
3488;DHT22;38546;48.170;11.724;2023-08-17T08:27:10;26.20;99.90
3488;DHT22;38546;48.170;11.724;2023-08-17T08:29:59;26.50;99.90
3488;DHT22;38546;48.170;11.724;2023-08-17T08:32:48;26.70;99.90
3488;DHT22;38546;48.170;11.724;2023-08-17T08:35:38;26.70;99.90
3488;DHT22;38546;48.170;11.724;2023-08-17T08:38:28;26.70;99.90
3488;DHT22;38546;48.170;11.724;2023-08-17T08:41:19;26.60;99.90
3488;DHT22;38546;48.170;11.724;2023-08-17T08:44:09;26.80;99.90
3488;DHT22;38546;48.170;11.724;2023-08-17T08:46:58;26.80;99.90
3488;DHT22;38546;48.170;11.724;2023-08-17T08:49:56;27.00;99.90
3488;DHT22;38546;48.170;11.724;2023-08-17T08:52:56;27.00;99.90
3488;DHT22;38546;48.170;11.724;2023-08-17T08:55:54;27.20;99.90
3488;DHT22;38546;48.170;11.724;2023-08-17T08:58:46;27.30;99.90
3488;DHT22;38546;48.170;11.724;2023-08-17T09:01:36;27.30;99.90
3488;DHT22;38546;48.170;11.724;2023-08-17T09:04:27;27.50;99.90
3488;DHT22;38546;48.170;11.724;2023-08-17T09:07:18;27.60;99.90
3488;DHT22;38546;48.170;11.724;2023-08-17T09:10:09;27.60;99.90
3488;DHT22;38546;48.170;11.724;2023-08-17T09:12:59;27.80;99.90
3488;DHT22;38546;48.170;11.724;2023-08-17T09:15:48;27.70;99.90
3488;DHT22;38546;48.170;11.724;2023-08-17T09:18:37;27.80;99.90
3488;DHT22;38546;48.170;11.724;2023-08-17T09:21:32;27.70;99.90
3488;DHT22;38546;48.170;11.724;2023-08-17T09:24:22;27.80;99.90
3488;DHT22;38546;48.170;11.724;2023-08-17T09:27:12;27.90;99.90
3488;DHT22;38546;48.170;11.724;2023-08-17T09:30:04;27.90;99.90
3488;DHT22;38546;48.170;11.724;2023-08-17T09:32:54;28.00;99.90
3488;DHT22;38546;48.170;11.724;2023-08-17T09:35:44;28.10;99.90
3488;DHT22;38546;48.170;11.724;2023-08-17T09:38:33;28.40;99.90
3488;DHT22;38546;48.170;11.724;2023-08-17T09:41:22;28.50;99.90
3488;DHT22;38546;48.170;11.724;2023-08-17T09:44:11;28.50;99.90
3488;DHT22;38546;48.170;11.724;2023-08-17T09:47:01;28.30;99.90
3488;DHT22;38546;48.170;11.724;2023-08-17T09:49:55;28.20;99.90
3488;DHT22;38546;48.170;11.724;2023-08-17T09:52:44;28.30;99.90
3488;DHT22;38546;48.170;11.724;2023-08-17T09:55:34;28.50;99.90
3488;DHT22;38546;48.170;11.724;2023-08-17T09:58:23;28.60;99.90
3488;DHT22;38546;48.170;11.724;2023-08-17T10:01:12;28.80;99.90
3488;DHT22;38546;48.170;11.724;2023-08-17T10:04:03;28.90;99.90
3488;DHT22;38546;48.170;11.724;2023-08-17T10:07:00;28.60;99.90
3488;DHT22;38546;48.170;11.724;2023-08-17T10:09:59;28.00;99.90
3488;DHT22;38546;48.170;11.724;2023-08-17T10:13:11;28.20;99.90
3488;DHT22;38546;48.170;11.724;2023-08-17T10:16:22;28.50;99.90
3488;DHT22;38546;48.170;11.724;2023-08-17T10:19:30;29.00;99.90
3488;DHT22;38546;48.170;11.724;2023-08-17T10:22:33;29.60;99.90
3488;DHT22;38546;48.170;11.724;2023-08-17T10:25:29;29.80;99.90
3488;DHT22;38546;48.170;11.724;2023-08-17T10:28:20;29.80;99.90
3488;DHT22;38546;48.170;11.724;2023-08-17T10:31:11;29.70;99.90
3488;DHT22;38546;48.170;11.724;2023-08-17T10:34:01;29.80;99.90
3488;DHT22;38546;48.170;11.724;2023-08-17T10:36:51;29.90;99.90
3488;DHT22;38546;48.170;11.724;2023-08-17T10:39:45;30.20;99.90
3488;DHT22;38546;48.170;11.724;2023-08-17T10:42:36;30.50;99.90
3488;DHT22;38546;48.170;11.724;2023-08-17T10:48:28;30.70;99.90
3488;DHT22;38546;48.170;11.724;2023-08-17T10:51:23;30.60;99.90
3488;DHT22;38546;48.170;11.724;2023-08-17T10:54:13;30.50;99.90
3488;DHT22;38546;48.170;11.724;2023-08-17T10:57:38;30.70;99.90
3488;DHT22;38546;48.170;11.724;2023-08-17T11:00:35;30.80;99.90
3488;DHT22;38546;48.170;11.724;2023-08-17T11:03:28;30.70;99.90
3488;DHT22;38546;48.170;11.724;2023-08-17T11:06:17;30.20;99.90
3488;DHT22;38546;48.170;11.724;2023-08-17T11:13:13;30.60;99.90
3488;DHT22;38546;48.170;11.724;2023-08-17T11:16:04;29.00;99.90
3488;DHT22;38546;48.170;11.724;2023-08-17T11:18:54;29.00;99.90
3488;DHT22;38546;48.170;11.724;2023-08-17T11:21:47;29.10;99.90
3488;DHT22;38546;48.170;11.724;2023-08-17T11:24:38;29.30;99.90
3488;DHT22;38546;48.170;11.724;2023-08-17T11:27:30;30.00;99.90
3488;DHT22;38546;48.170;11.724;2023-08-17T11:30:21;30.40;99.90
3488;DHT22;38546;48.170;11.724;2023-08-17T11:33:11;30.80;99.90
3488;DHT22;38546;48.170;11.724;2023-08-17T11:36:02;30.80;99.90
3488;DHT22;38546;48.170;11.724;2023-08-17T11:38:52;30.50;99.90
3488;DHT22;38546;48.170;11.724;2023-08-17T11:41:42;30.50;99.90
3488;DHT22;38546;48.170;11.724;2023-08-17T11:44:32;30.60;99.90
3488;DHT22;38546;48.170;11.724;2023-08-17T11:47:22;30.60;99.90
3488;DHT22;38546;48.170;11.724;2023-08-17T11:50:13;30.60;99.90
3488;DHT22;38546;48.170;11.724;2023-08-17T11:53:03;30.20;99.90
3488;DHT22;38546;48.170;11.724;2023-08-17T11:55:53;29.40;99.90
3488;DHT22;38546;48.170;11.724;2023-08-17T11:58:44;30.00;99.90
3488;DHT22;38546;48.170;11.724;2023-08-17T12:01:35;29.70;99.90
3488;DHT22;38546;48.170;11.724;2023-08-17T12:04:25;29.80;99.90
3488;DHT22;38546;48.170;11.724;2023-08-17T12:07:15;30.30;99.90
3488;DHT22;38546;48.170;11.724;2023-08-17T12:10:07;30.40;99.90
3488;DHT22;38546;48.170;11.724;2023-08-17T12:12:58;30.00;99.90
3488;DHT22;38546;48.170;11.724;2023-08-17T12:15:48;29.70;99.90
3488;DHT22;38546;48.170;11.724;2023-08-17T12:18:38;29.40;99.90
3488;DHT22;38546;48.170;11.724;2023-08-17T12:21:27;29.60;99.90
3488;DHT22;38546;48.170;11.724;2023-08-17T12:24:19;29.80;99.90
3488;DHT22;38546;48.170;11.724;2023-08-17T12:27:09;30.00;99.90
3488;DHT22;38546;48.170;11.724;2023-08-17T12:29:58;29.60;99.90
3488;DHT22;38546;48.170;11.724;2023-08-17T12:32:47;29.40;99.90
3488;DHT22;38546;48.170;11.724;2023-08-17T12:35:36;29.60;99.90
3488;DHT22;38546;48.170;11.724;2023-08-17T12:38:25;29.80;99.90
3488;DHT22;38546;48.170;11.724;2023-08-17T12:41:14;29.50;99.90
3488;DHT22;38546;48.170;11.724;2023-08-17T12:44:03;29.60;99.90
3488;DHT22;38546;48.170;11.724;2023-08-17T12:46:53;29.60;99.90
3488;DHT22;38546;48.170;11.724;2023-08-17T12:49:42;29.40;99.90
3488;DHT22;38546;48.170;11.724;2023-08-17T12:52:31;29.50;99.90
3488;DHT22;38546;48.170;11.724;2023-08-17T12:55:20;29.60;99.90
3488;DHT22;38546;48.170;11.724;2023-08-17T12:58:09;29.70;99.90
3488;DHT22;38546;48.170;11.724;2023-08-17T13:00:58;29.50;99.90
3488;DHT22;38546;48.170;11.724;2023-08-17T13:03:47;29.30;99.90
3488;DHT22;38546;48.170;11.724;2023-08-17T13:06:37;29.30;99.90
3488;DHT22;38546;48.170;11.724;2023-08-17T13:09:27;29.30;99.90
3488;DHT22;38546;48.170;11.724;2023-08-17T13:12:16;29.10;99.90
3488;DHT22;38546;48.170;11.724;2023-08-17T13:15:06;29.10;99.90
3488;DHT22;38546;48.170;11.724;2023-08-17T13:17:56;29.30;99.90
3488;DHT22;38546;48.170;11.724;2023-08-17T13:20:45;29.50;99.90
3488;DHT22;38546;48.170;11.724;2023-08-17T13:23:34;29.00;99.90
3488;DHT22;38546;48.170;11.724;2023-08-17T13:26:23;29.10;99.90
3488;DHT22;38546;48.170;11.724;2023-08-17T13:29:13;29.10;99.90
3488;DHT22;38546;48.170;11.724;2023-08-17T13:32:02;29.10;99.90
3488;DHT22;38546;48.170;11.724;2023-08-17T13:34:52;29.30;99.90
3488;DHT22;38546;48.170;11.724;2023-08-17T13:37:41;29.40;99.90
3488;DHT22;38546;48.170;11.724;2023-08-17T13:40:31;29.40;99.90
3488;DHT22;38546;48.170;11.724;2023-08-17T13:43:21;29.30;99.90
3488;DHT22;38546;48.170;11.724;2023-08-17T13:46:12;29.20;99.90
3488;DHT22;38546;48.170;11.724;2023-08-17T13:49:01;29.20;99.90
3488;DHT22;38546;48.170;11.724;2023-08-17T13:51:51;29.40;99.90
3488;DHT22;38546;48.170;11.724;2023-08-17T13:54:40;29.20;99.90
3488;DHT22;38546;48.170;11.724;2023-08-17T13:57:29;29.40;99.90
3488;DHT22;38546;48.170;11.724;2023-08-17T14:00:18;29.10;99.90
3488;DHT22;38546;48.170;11.724;2023-08-17T14:03:08;29.30;99.90
3488;DHT22;38546;48.170;11.724;2023-08-17T14:05:58;29.10;99.90
3488;DHT22;38546;48.170;11.724;2023-08-17T14:08:47;29.10;99.90
3488;DHT22;38546;48.170;11.724;2023-08-17T14:11:36;29.30;99.90
3488;DHT22;38546;48.170;11.724;2023-08-17T14:14:25;29.20;99.90
3488;DHT22;38546;48.170;11.724;2023-08-17T14:17:14;29.20;99.90
3488;DHT22;38546;48.170;11.724;2023-08-17T14:20:04;29.30;99.90
3488;DHT22;38546;48.170;11.724;2023-08-17T14:22:54;29.20;99.90
3488;DHT22;38546;48.170;11.724;2023-08-17T14:25:43;29.00;99.90
3488;DHT22;38546;48.170;11.724;2023-08-17T14:28:32;28.90;99.90
3488;DHT22;38546;48.170;11.724;2023-08-17T14:31:22;28.90;99.90
3488;DHT22;38546;48.170;11.724;2023-08-17T14:34:11;28.90;99.90
3488;DHT22;38546;48.170;11.724;2023-08-17T14:37:00;28.80;99.90
3488;DHT22;38546;48.170;11.724;2023-08-17T14:39:51;28.90;99.90
3488;DHT22;38546;48.170;11.724;2023-08-17T14:42:40;28.90;99.90
3488;DHT22;38546;48.170;11.724;2023-08-17T14:45:29;28.80;99.90
3488;DHT22;38546;48.170;11.724;2023-08-17T14:48:18;28.70;99.90
3488;DHT22;38546;48.170;11.724;2023-08-17T14:51:07;28.70;99.90
3488;DHT22;38546;48.170;11.724;2023-08-17T14:53:57;28.60;99.90
3488;DHT22;38546;48.170;11.724;2023-08-17T14:56:46;28.60;99.90
3488;DHT22;38546;48.170;11.724;2023-08-17T14:59:35;28.50;99.90
3488;DHT22;38546;48.170;11.724;2023-08-17T15:02:26;28.50;99.90
3488;DHT22;38546;48.170;11.724;2023-08-17T15:05:16;28.50;99.90
3488;DHT22;38546;48.170;11.724;2023-08-17T15:08:05;28.50;99.90
3488;DHT22;38546;48.170;11.724;2023-08-17T15:10:55;28.50;99.90
3488;DHT22;38546;48.170;11.724;2023-08-17T15:13:50;28.50;99.90
3488;DHT22;38546;48.170;11.724;2023-08-17T15:16:40;28.50;99.90
3488;DHT22;38546;48.170;11.724;2023-08-17T15:19:29;28.50;99.90
3488;DHT22;38546;48.170;11.724;2023-08-17T15:22:19;28.70;99.90
3488;DHT22;38546;48.170;11.724;2023-08-17T15:25:08;28.80;99.90
3488;DHT22;38546;48.170;11.724;2023-08-17T15:27:57;28.90;99.90
3488;DHT22;38546;48.170;11.724;2023-08-17T15:30:50;29.00;99.90
3488;DHT22;38546;48.170;11.724;2023-08-17T15:33:50;29.30;99.90
3488;DHT22;38546;48.170;11.724;2023-08-17T15:36:39;29.40;99.90
3488;DHT22;38546;48.170;11.724;2023-08-17T15:39:28;29.50;99.90
3488;DHT22;38546;48.170;11.724;2023-08-17T15:42:18;29.60;99.90
3488;DHT22;38546;48.170;11.724;2023-08-17T15:45:07;29.60;99.90
3488;DHT22;38546;48.170;11.724;2023-08-17T15:47:57;29.40;99.90
3488;DHT22;38546;48.170;11.724;2023-08-17T15:50:46;29.20;99.90
3488;DHT22;38546;48.170;11.724;2023-08-17T15:53:35;29.20;99.90
3488;DHT22;38546;48.170;11.724;2023-08-17T15:56:28;29.10;99.90
3488;DHT22;38546;48.170;11.724;2023-08-17T15:59:17;29.00;99.90
3488;DHT22;38546;48.170;11.724;2023-08-17T16:02:06;29.00;99.90
3488;DHT22;38546;48.170;11.724;2023-08-17T16:04:55;28.90;99.90
3488;DHT22;38546;48.170;11.724;2023-08-17T16:07:44;28.90;99.90
3488;DHT22;38546;48.170;11.724;2023-08-17T16:10:33;28.70;99.90
3488;DHT22;38546;48.170;11.724;2023-08-17T16:13:22;28.60;99.90
3488;DHT22;38546;48.170;11.724;2023-08-17T16:16:11;28.50;99.90
3488;DHT22;38546;48.170;11.724;2023-08-17T16:19:01;28.30;99.90
3488;DHT22;38546;48.170;11.724;2023-08-17T16:21:50;28.30;99.90
3488;DHT22;38546;48.170;11.724;2023-08-17T16:24:38;28.30;99.90
3488;DHT22;38546;48.170;11.724;2023-08-17T16:27:27;28.30;99.90
3488;DHT22;38546;48.170;11.724;2023-08-17T16:30:16;28.30;99.90
3488;DHT22;38546;48.170;11.724;2023-08-17T16:33:06;28.20;99.90
3488;DHT22;38546;48.170;11.724;2023-08-17T16:35:56;28.20;99.90
3488;DHT22;38546;48.170;11.724;2023-08-17T16:38:45;28.30;99.90
3488;DHT22;38546;48.170;11.724;2023-08-17T16:41:33;28.30;99.90
3488;DHT22;38546;48.170;11.724;2023-08-17T16:44:22;28.20;99.90
3488;DHT22;38546;48.170;11.724;2023-08-17T16:47:12;28.10;99.90
3488;DHT22;38546;48.170;11.724;2023-08-17T16:50:01;28.00;99.90
3488;DHT22;38546;48.170;11.724;2023-08-17T16:52:50;28.20;99.90
3488;DHT22;38546;48.170;11.724;2023-08-17T16:55:40;27.90;99.90
3488;DHT22;38546;48.170;11.724;2023-08-17T16:58:29;27.40;99.90
3488;DHT22;38546;48.170;11.724;2023-08-17T17:01:18;26.80;99.90
3488;DHT22;38546;48.170;11.724;2023-08-17T17:04:08;26.40;99.90
3488;DHT22;38546;48.170;11.724;2023-08-17T17:06:57;26.00;99.90
3488;DHT22;38546;48.170;11.724;2023-08-17T17:09:46;25.60;99.90
3488;DHT22;38546;48.170;11.724;2023-08-17T17:12:38;25.30;99.90
3488;DHT22;38546;48.170;11.724;2023-08-17T17:15:28;25.20;99.90
3488;DHT22;38546;48.170;11.724;2023-08-17T17:18:17;24.80;99.90
3488;DHT22;38546;48.170;11.724;2023-08-17T17:21:06;24.90;99.90
3488;DHT22;38546;48.170;11.724;2023-08-17T17:23:55;24.70;99.90
3488;DHT22;38546;48.170;11.724;2023-08-17T17:26:44;24.70;99.90
3488;DHT22;38546;48.170;11.724;2023-08-17T17:29:33;24.70;99.90
3488;DHT22;38546;48.170;11.724;2023-08-17T17:32:22;24.50;99.90
3488;DHT22;38546;48.170;11.724;2023-08-17T17:35:11;24.60;99.90
3488;DHT22;38546;48.170;11.724;2023-08-17T17:38:00;24.40;99.90
3488;DHT22;38546;48.170;11.724;2023-08-17T17:40:49;24.30;99.90
3488;DHT22;38546;48.170;11.724;2023-08-17T17:43:38;24.10;99.90
3488;DHT22;38546;48.170;11.724;2023-08-17T17:46:27;23.90;99.90
3488;DHT22;38546;48.170;11.724;2023-08-17T17:49:16;23.90;99.90
3488;DHT22;38546;48.170;11.724;2023-08-17T17:52:05;23.80;99.90
3488;DHT22;38546;48.170;11.724;2023-08-17T17:54:54;23.70;99.90
3488;DHT22;38546;48.170;11.724;2023-08-17T17:57:43;23.50;99.90
3488;DHT22;38546;48.170;11.724;2023-08-17T18:00:32;23.40;99.90
3488;DHT22;38546;48.170;11.724;2023-08-17T18:03:21;23.40;99.90